Time;durP1;ratioP1;P1;durP2;ratioP2;P2;SDS_P1;SDS_P2;PMS_P1;PMS_P2;Temp;Humidity;BMP_temperature;BMP_pressure;BME280_temperature;BME280_humidity;BME280_pressure;Samples;Min_cycle;Max_cycle;Signal;HPM_P1;HPM_P2
2022/07/22 00:00:13;;;;;;;22.55;6.75;;;15.40;99.90;;;;;;5059641;28;20040;-71
2022/07/22 00:02:39;;;;;;;24.50;7.00;;;15.50;99.90;;;;;;5051253;28;20171;-69
2022/07/22 00:05:06;;;;;;;19.75;6.22;;;15.40;99.90;;;;;;5056738;28;20115;-70
2022/07/22 00:07:31;;;;;;;25.15;7.25;;;15.50;99.90;;;;;;5065189;28;21512;-70
2022/07/22 00:09:58;;;;;;;27.13;6.85;;;15.50;99.90;;;;;;5061146;28;20033;-71
2022/07/22 00:12:24;;;;;;;26.17;6.50;;;15.30;99.90;;;;;;5058489;28;20127;-71
2022/07/22 00:14:50;;;;;;;27.60;7.05;;;15.40;99.90;;;;;;5073463;28;20170;-72
2022/07/22 00:17:15;;;;;;;29.65;6.75;;;15.40;99.90;;;;;;5058109;28;20036;-70
2022/07/22 00:19:41;;;;;;;28.70;7.40;;;15.20;99.90;;;;;;5061221;28;20350;-71
2022/07/22 00:22:07;;;;;;;23.08;6.63;;;15.30;99.90;;;;;;5060539;28;20029;-70
2022/07/22 00:24:32;;;;;;;28.27;7.00;;;15.20;99.90;;;;;;5061550;28;20041;-72
2022/07/22 00:26:58;;;;;;;32.58;6.90;;;15.40;99.90;;;;;;5058927;28;20070;-71
2022/07/22 00:29:23;;;;;;;22.23;6.60;;;15.20;99.90;;;;;;5061112;28;20043;-71
2022/07/22 00:31:49;;;;;;;26.25;7.25;;;15.40;99.90;;;;;;5059578;28;20426;-73
2022/07/22 00:34:14;;;;;;;21.40;6.78;;;15.30;99.90;;;;;;5048863;28;20033;-70
2022/07/22 00:36:40;;;;;;;23.77;6.18;;;15.20;99.90;;;;;;5053967;28;20069;-72
2022/07/22 00:39:06;;;;;;;25.85;6.68;;;15.30;99.90;;;;;;5058390;28;20029;-72
2022/07/22 00:41:32;;;;;;;24.40;6.45;;;15.30;99.90;;;;;;5057538;28;20040;-70
2022/07/22 00:43:59;;;;;;;22.38;6.00;;;15.40;99.90;;;;;;5058938;28;20439;-71
2022/07/22 00:46:26;;;;;;;25.15;5.82;;;15.20;99.90;;;;;;5044540;28;20028;-70
2022/07/22 00:48:52;;;;;;;28.05;6.35;;;15.30;99.90;;;;;;5046175;28;20085;-71
2022/07/22 00:51:20;;;;;;;28.88;6.53;;;15.30;99.90;;;;;;5058692;28;20048;-70
2022/07/22 00:53:46;;;;;;;23.58;5.63;;;15.30;99.90;;;;;;5074453;28;20074;-70
2022/07/22 00:56:13;;;;;;;24.67;5.68;;;15.30;99.90;;;;;;5062146;28;20059;-71
2022/07/22 00:58:39;;;;;;;25.48;6.20;;;15.20;99.90;;;;;;5057898;28;20045;-71
2022/07/22 01:01:05;;;;;;;20.00;5.55;;;15.20;99.90;;;;;;5061725;28;20067;-72
2022/07/22 01:03:31;;;;;;;28.00;6.05;;;15.10;99.90;;;;;;5057542;28;20120;-72
2022/07/22 01:05:57;;;;;;;26.92;6.35;;;15.10;99.90;;;;;;5054107;28;20062;-71
2022/07/22 01:08:23;;;;;;;17.77;5.75;;;15.10;99.90;;;;;;5058996;28;20040;-71
2022/07/22 01:10:48;;;;;;;29.50;6.03;;;15.10;99.90;;;;;;5062954;28;20055;-72
2022/07/22 01:13:14;;;;;;;19.85;5.75;;;15.10;99.90;;;;;;5074075;28;20052;-71
2022/07/22 01:15:40;;;;;;;31.85;6.03;;;15.20;99.90;;;;;;5056898;28;20550;-72
2022/07/22 01:18:05;;;;;;;23.15;6.30;;;15.00;99.90;;;;;;5048364;28;20082;-70
2022/07/22 01:20:31;;;;;;;25.50;6.22;;;15.10;99.90;;;;;;5054696;28;20052;-71
2022/07/22 01:22:57;;;;;;;21.88;5.57;;;15.20;99.90;;;;;;5057484;28;20109;-72
2022/07/22 01:25:22;;;;;;;26.10;5.38;;;15.10;99.90;;;;;;5055640;28;20045;-72
2022/07/22 01:27:48;;;;;;;18.80;5.50;;;15.10;99.90;;;;;;5057114;28;20049;-72
2022/07/22 01:30:14;;;;;;;27.90;5.85;;;15.00;99.90;;;;;;5070380;28;20047;-71
2022/07/22 01:32:39;;;;;;;19.27;5.45;;;15.20;99.90;;;;;;5056786;28;20043;-73
2022/07/22 01:35:05;;;;;;;31.52;6.72;;;15.20;99.90;;;;;;5057043;28;20037;-71
2022/07/22 01:37:34;;;;;;;20.13;5.80;;;15.10;99.90;;;;;;5053231;28;20040;-71
2022/07/22 01:40:00;;;;;;;23.83;5.72;;;15.00;99.90;;;;;;5053299;28;20041;-72
2022/07/22 01:42:26;;;;;;;25.40;5.75;;;15.20;99.90;;;;;;5060964;28;20065;-71
2022/07/22 01:44:52;;;;;;;20.67;6.20;;;15.10;99.90;;;;;;5057077;28;20467;-73
2022/07/22 01:47:17;;;;;;;19.83;5.65;;;15.20;99.90;;;;;;5059820;28;20055;-72
2022/07/22 01:49:43;;;;;;;17.45;5.75;;;15.20;99.90;;;;;;5066825;28;20036;-73
2022/07/22 01:52:09;;;;;;;21.48;5.97;;;15.20;99.90;;;;;;5066832;28;20052;-73
2022/07/22 01:54:35;;;;;;;23.48;5.63;;;15.20;99.90;;;;;;5064190;28;20044;-71
2022/07/22 01:57:01;;;;;;;22.00;5.35;;;15.10;99.90;;;;;;5068286;28;20561;-72
2022/07/22 01:59:27;;;;;;;17.67;5.28;;;15.20;99.90;;;;;;5063746;28;20139;-71
2022/07/22 02:01:53;;;;;;;27.35;5.70;;;15.10;99.90;;;;;;5057063;28;20058;-72
2022/07/22 02:04:19;;;;;;;25.35;5.68;;;15.20;99.90;;;;;;5064941;28;20049;-73
2022/07/22 02:06:44;;;;;;;28.65;6.10;;;15.20;99.90;;;;;;5066653;28;20036;-72
2022/07/22 02:09:10;;;;;;;21.60;6.05;;;15.10;99.90;;;;;;5065026;28;20072;-73
2022/07/22 02:11:36;;;;;;;18.48;5.50;;;15.10;99.90;;;;;;5061842;28;20044;-73
2022/07/22 02:14:01;;;;;;;19.50;5.53;;;15.10;99.90;;;;;;5065267;28;20040;-74
2022/07/22 02:16:27;;;;;;;26.20;5.82;;;15.20;99.90;;;;;;5065997;28;20119;-73
2022/07/22 02:18:53;;;;;;;17.13;4.97;;;15.00;99.90;;;;;;5068155;28;20042;-72
2022/07/22 02:21:19;;;;;;;22.10;5.80;;;15.10;99.90;;;;;;5064496;28;20058;-73
2022/07/22 02:23:45;;;;;;;21.77;5.65;;;15.10;99.90;;;;;;5062710;28;20483;-73
2022/07/22 02:26:10;;;;;;;23.13;4.53;;;15.10;99.90;;;;;;5067513;28;20410;-73
2022/07/22 02:28:36;;;;;;;26.33;5.55;;;15.00;99.90;;;;;;5076583;28;20028;-72
2022/07/22 02:31:02;;;;;;;23.85;5.45;;;15.00;99.90;;;;;;5076399;28;20040;-73
2022/07/22 02:33:29;;;;;;;26.27;5.50;;;15.10;99.90;;;;;;5069957;28;20040;-72
2022/07/22 02:35:55;;;;;;;29.65;5.53;;;15.10;99.90;;;;;;5070708;28;20055;-71
2022/07/22 02:38:21;;;;;;;18.30;4.78;;;15.10;99.90;;;;;;5061436;28;20040;-72
2022/07/22 02:40:46;;;;;;;17.00;4.70;;;15.10;99.90;;;;;;5068496;28;20123;-70
2022/07/22 02:43:12;;;;;;;21.25;5.03;;;15.10;99.90;;;;;;5072118;28;20498;-71
2022/07/22 02:45:38;;;;;;;21.65;5.40;;;14.90;99.90;;;;;;5074216;28;20048;-72
2022/07/22 02:48:04;;;;;;;25.05;5.15;;;15.10;99.90;;;;;;5064917;28;20119;-72
2022/07/22 02:50:30;;;;;;;27.27;5.10;;;15.00;99.90;;;;;;5062700;28;20064;-70
2022/07/22 02:52:55;;;;;;;17.25;4.88;;;15.10;99.90;;;;;;5070622;28;20037;-70
2022/07/22 02:55:21;;;;;;;17.67;4.93;;;15.10;99.90;;;;;;5065335;28;20063;-70
2022/07/22 02:57:47;;;;;;;19.27;5.05;;;15.20;99.90;;;;;;5060996;28;20091;-71
2022/07/22 03:00:14;;;;;;;19.63;5.13;;;15.10;99.90;;;;;;5067062;28;20467;-70
2022/07/22 03:02:39;;;;;;;22.77;5.07;;;15.10;99.90;;;;;;5079512;28;20037;-70
2022/07/22 03:05:06;;;;;;;20.42;5.43;;;15.10;99.90;;;;;;5064552;28;20056;-71
2022/07/22 03:07:31;;;;;;;19.05;5.00;;;15.10;99.90;;;;;;5068317;28;20041;-70
2022/07/22 03:09:58;;;;;;;23.90;5.25;;;15.00;99.90;;;;;;5068031;28;20040;-70
2022/07/22 03:12:23;;;;;;;20.98;4.75;;;15.10;99.90;;;;;;5065634;28;20044;-70
2022/07/22 03:14:49;;;;;;;18.25;4.90;;;15.10;99.90;;;;;;5066606;28;20041;-70
2022/07/22 03:17:15;;;;;;;21.98;4.82;;;15.00;99.90;;;;;;5069858;28;20029;-71
2022/07/22 03:19:41;;;;;;;16.25;4.70;;;15.10;99.90;;;;;;5066445;28;20041;-70
2022/07/22 03:22:06;;;;;;;21.67;4.93;;;15.20;99.90;;;;;;5068695;28;20123;-71
2022/07/22 03:24:32;;;;;;;21.58;4.80;;;15.20;99.90;;;;;;5076222;28;20067;-72
2022/07/22 03:26:57;;;;;;;18.77;4.57;;;15.10;99.90;;;;;;5067228;28;20483;-75
2022/07/22 03:29:23;;;;;;;11.52;4.60;;;15.10;99.90;;;;;;5062184;28;20060;-71
2022/07/22 03:31:48;;;;;;;20.27;4.85;;;15.00;99.90;;;;;;5068643;28;20438;-72
2022/07/22 03:34:14;;;;;;;32.28;4.22;;;15.10;99.90;;;;;;5084033;28;20051;-71
2022/07/22 03:36:40;;;;;;;20.58;4.82;;;15.20;99.90;;;;;;5068904;28;20029;-71
2022/07/22 03:39:05;;;;;;;28.15;4.97;;;15.10;99.90;;;;;;5066054;28;20102;-72
2022/07/22 03:41:31;;;;;;;15.23;4.80;;;15.20;99.90;;;;;;5065737;28;20028;-73
2022/07/22 03:43:56;;;;;;;17.45;4.57;;;15.10;99.90;;;;;;5071117;28;20574;-72
2022/07/22 03:46:22;;;;;;;17.20;5.10;;;15.20;99.90;;;;;;5066652;28;20047;-73
2022/07/22 03:48:48;;;;;;;24.80;5.20;;;15.10;99.90;;;;;;5067183;28;20124;-73
2022/07/22 03:51:13;;;;;;;23.10;5.00;;;15.10;99.90;;;;;;5069654;28;20066;-73
2022/07/22 03:53:39;;;;;;;23.42;4.70;;;15.10;99.90;;;;;;5070197;28;20040;-72
2022/07/22 03:56:05;;;;;;;18.52;4.93;;;15.00;99.90;;;;;;5067797;28;20072;-72
2022/07/22 03:58:30;;;;;;;20.13;5.07;;;15.00;99.90;;;;;;5083770;28;20040;-72
2022/07/22 04:00:56;;;;;;;28.75;5.22;;;15.00;99.90;;;;;;5065953;28;20041;-73
2022/07/22 04:03:22;;;;;;;21.02;4.88;;;15.00;99.90;;;;;;5085020;28;20041;-73
2022/07/22 04:05:47;;;;;;;20.83;4.57;;;15.00;99.90;;;;;;5071451;28;20383;-72
2022/07/22 04:08:13;;;;;;;25.33;5.93;;;15.00;99.90;;;;;;5062232;28;20078;-71
2022/07/22 04:10:39;;;;;;;21.08;4.07;;;15.00;99.90;;;;;;5058306;28;20461;-71
2022/07/22 04:13:05;;;;;;;17.95;4.70;;;15.10;99.90;;;;;;5065940;28;20053;-73
2022/07/22 04:15:30;;;;;;;14.77;4.63;;;15.00;99.90;;;;;;5061559;28;20514;-70
2022/07/22 04:17:56;;;;;;;15.60;4.95;;;15.00;99.90;;;;;;5075638;28;20314;-71
2022/07/22 04:20:22;;;;;;;18.73;4.88;;;15.10;99.90;;;;;;5065543;28;20043;-71
2022/07/22 04:22:47;;;;;;;18.00;4.95;;;15.10;99.90;;;;;;5063668;28;20095;-70
2022/07/22 04:25:14;;;;;;;19.52;4.32;;;15.10;99.90;;;;;;5080239;28;20036;-69
2022/07/22 04:27:39;;;;;;;19.50;4.55;;;15.20;99.90;;;;;;5062278;28;20048;-72
2022/07/22 04:30:06;;;;;;;18.52;4.43;;;15.10;99.90;;;;;;5055368;28;20048;-71
2022/07/22 04:32:32;;;;;;;14.73;4.43;;;15.20;99.90;;;;;;5056455;28;20391;-71
2022/07/22 04:34:57;;;;;;;17.80;4.45;;;15.20;99.90;;;;;;5057329;28;20055;-71
2022/07/22 04:37:23;;;;;;;18.90;4.25;;;15.20;99.90;;;;;;5064295;28;20041;-69
2022/07/22 04:39:48;;;;;;;12.40;4.20;;;15.30;99.90;;;;;;5055536;28;20552;-70
2022/07/22 04:42:14;;;;;;;13.80;4.57;;;15.30;99.90;;;;;;5064445;28;20047;-70
2022/07/22 04:44:39;;;;;;;18.42;4.53;;;15.20;99.90;;;;;;5065167;28;20066;-76
2022/07/22 04:47:05;;;;;;;17.95;4.50;;;15.30;99.90;;;;;;5068016;28;20514;-76
2022/07/22 04:49:31;;;;;;;15.75;4.18;;;15.30;99.90;;;;;;5069997;28;20055;-70
2022/07/22 04:51:56;;;;;;;13.65;4.30;;;15.30;99.90;;;;;;5068094;28;20475;-74
2022/07/22 04:54:22;;;;;;;14.20;3.33;;;15.40;99.90;;;;;;5069781;28;20037;-72
2022/07/22 04:56:47;;;;;;;19.75;4.10;;;15.30;99.90;;;;;;5062027;28;20471;-71
2022/07/22 04:59:13;;;;;;;17.73;4.20;;;15.30;99.90;;;;;;5059936;28;20072;-70
2022/07/22 05:01:38;;;;;;;18.65;3.85;;;15.30;99.90;;;;;;5058915;28;20051;-71
2022/07/22 05:04:04;;;;;;;11.68;3.70;;;15.40;99.90;;;;;;5072557;28;20055;-73
2022/07/22 05:06:30;;;;;;;16.65;3.75;;;15.30;99.90;;;;;;5058203;28;20040;-75
2022/07/22 05:08:55;;;;;;;17.40;3.83;;;15.40;99.90;;;;;;5058653;28;20028;-72
2022/07/22 05:11:21;;;;;;;16.45;4.82;;;15.30;99.90;;;;;;5058651;28;20225;-71
2022/07/22 05:13:46;;;;;;;15.18;4.22;;;15.30;99.90;;;;;;5064915;28;20084;-71
2022/07/22 05:16:12;;;;;;;15.27;4.60;;;15.30;99.90;;;;;;5060399;28;20044;-71
2022/07/22 05:18:38;;;;;;;16.92;4.45;;;15.30;99.90;;;;;;5074415;28;20194;-70
2022/07/22 05:21:04;;;;;;;15.10;4.30;;;15.20;99.90;;;;;;5060450;28;20102;-70
2022/07/22 05:23:29;;;;;;;18.77;4.50;;;15.30;99.90;;;;;;5050231;28;21038;-70
2022/07/22 05:25:55;;;;;;;15.13;4.43;;;15.30;99.90;;;;;;5058217;28;20111;-70
2022/07/22 05:28:21;;;;;;;21.60;4.72;;;15.30;99.90;;;;;;5052979;28;20032;-69
2022/07/22 05:30:46;;;;;;;14.73;4.65;;;15.30;99.90;;;;;;5054597;28;20399;-70
2022/07/22 05:33:12;;;;;;;16.45;4.45;;;15.30;99.90;;;;;;5056038;28;20123;-70
2022/07/22 05:35:38;;;;;;;19.30;4.45;;;15.40;99.90;;;;;;5056561;28;20429;-70
2022/07/22 05:38:05;;;;;;;18.30;4.32;;;15.40;99.90;;;;;;5054138;28;20051;-70
2022/07/22 05:40:31;;;;;;;18.02;4.60;;;15.40;99.90;;;;;;5066548;28;20566;-70
2022/07/22 05:42:56;;;;;;;18.02;5.43;;;15.40;99.90;;;;;;5053585;28;20074;-69
2022/07/22 05:45:22;;;;;;;16.50;4.60;;;15.40;99.90;;;;;;5062929;28;20071;-69
2022/07/22 05:47:47;;;;;;;12.65;4.40;;;15.40;99.90;;;;;;5060611;28;20032;-70
2022/07/22 05:50:13;;;;;;;20.98;4.60;;;15.50;99.90;;;;;;5057127;28;20470;-70
2022/07/22 05:52:39;;;;;;;17.20;4.60;;;15.50;99.90;;;;;;5054275;28;20175;-70
2022/07/22 05:55:05;;;;;;;18.45;4.30;;;15.50;99.90;;;;;;5058878;28;20041;-69
2022/07/22 05:57:31;;;;;;;11.77;4.53;;;15.50;99.90;;;;;;5054475;28;20048;-70
2022/07/22 05:59:57;;;;;;;13.35;4.20;;;15.50;99.90;;;;;;5071810;28;20332;-70
2022/07/22 06:02:22;;;;;;;14.57;4.00;;;15.50;99.90;;;;;;5059633;28;20110;-70
2022/07/22 06:04:48;;;;;;;14.30;4.70;;;15.60;99.90;;;;;;5057088;28;20079;-69
2022/07/22 06:07:14;;;;;;;15.63;4.00;;;15.60;99.90;;;;;;5058096;28;20486;-72
2022/07/22 06:09:40;;;;;;;15.43;4.10;;;15.50;99.90;;;;;;5052551;28;20097;-70
2022/07/22 06:12:05;;;;;;;9.90;4.07;;;15.60;99.90;;;;;;5060636;28;20483;-69
2022/07/22 06:14:31;;;;;;;17.60;4.28;;;15.70;99.90;;;;;;5059219;28;20048;-71
2022/07/22 06:16:57;;;;;;;18.23;4.22;;;15.60;99.90;;;;;;5059346;28;20040;-69
2022/07/22 06:19:24;;;;;;;15.60;4.50;;;15.80;99.90;;;;;;5057894;28;20574;-71
2022/07/22 06:21:50;;;;;;;13.48;3.70;;;15.80;99.90;;;;;;5061482;28;20040;-71
2022/07/22 06:24:16;;;;;;;14.10;4.22;;;15.80;99.90;;;;;;5059413;28;20052;-71
2022/07/22 06:26:41;;;;;;;12.90;3.72;;;15.90;99.90;;;;;;5066666;28;20036;-70
2022/07/22 06:29:07;;;;;;;14.75;4.22;;;15.90;99.90;;;;;;5065966;28;20037;-71
2022/07/22 06:31:32;;;;;;;15.13;4.30;;;15.90;99.90;;;;;;5064890;28;20090;-70
2022/07/22 06:33:58;;;;;;;13.32;4.20;;;16.00;99.90;;;;;;5066346;28;20516;-73
2022/07/22 06:36:24;;;;;;;15.18;4.20;;;16.00;99.90;;;;;;5065513;28;20041;-75
2022/07/22 06:38:50;;;;;;;13.18;4.18;;;16.10;99.90;;;;;;5067114;28;20041;-75
2022/07/22 06:41:19;;;;;;;12.35;4.10;;;16.10;99.90;;;;;;5058311;28;20503;-73
2022/07/22 06:43:45;;;;;;;14.75;3.65;;;16.10;99.90;;;;;;5064972;28;20058;-76
2022/07/22 06:46:11;;;;;;;14.35;4.30;;;16.10;99.90;;;;;;5064426;28;20466;-75
2022/07/22 06:48:36;;;;;;;11.20;3.28;;;16.10;99.90;;;;;;5066063;28;20128;-73
2022/07/22 06:51:02;;;;;;;9.95;3.85;;;16.10;99.90;;;;;;5066886;28;20028;-75
2022/07/22 06:53:28;;;;;;;19.40;3.78;;;16.10;99.90;;;;;;5068270;28;20474;-72
2022/07/22 06:55:53;;;;;;;8.45;3.95;;;16.10;99.90;;;;;;5065455;28;20048;-74
2022/07/22 06:58:19;;;;;;;11.90;3.53;;;16.10;99.90;;;;;;5062957;28;20032;-73
2022/07/22 07:00:45;;;;;;;12.07;3.85;;;16.10;99.90;;;;;;5064835;28;20491;-76
2022/07/22 07:03:11;;;;;;;15.20;4.05;;;16.20;99.90;;;;;;5067076;28;20044;-77
2022/07/22 07:05:36;;;;;;;11.57;3.63;;;16.10;99.90;;;;;;5067424;28;20042;-73
2022/07/22 07:08:02;;;;;;;10.98;3.65;;;16.20;99.90;;;;;;5065237;28;20037;-76
2022/07/22 07:10:28;;;;;;;13.95;3.88;;;16.20;99.90;;;;;;5062724;28;20128;-73
2022/07/22 07:12:58;;;;;;;15.30;3.58;;;16.30;99.90;;;;;;5074412;28;20084;-72
2022/07/22 07:15:24;;;;;;;9.30;3.22;;;16.30;99.90;;;;;;5071439;28;20505;-72
2022/07/22 07:17:51;;;;;;;11.25;3.53;;;16.40;99.90;;;;;;5068754;28;20040;-76
2022/07/22 07:20:16;;;;;;;11.32;3.45;;;16.40;99.90;;;;;;5069689;28;20032;-75
2022/07/22 07:22:42;;;;;;;10.50;3.92;;;16.40;99.90;;;;;;5071581;28;20058;-76
2022/07/22 07:25:08;;;;;;;11.32;3.28;;;16.50;99.90;;;;;;5083604;28;20036;-74
2022/07/22 07:27:34;;;;;;;12.93;3.30;;;16.50;99.90;;;;;;5083723;28;20036;-74
2022/07/22 07:30:00;;;;;;;12.32;3.88;;;16.60;99.90;;;;;;5062245;28;20506;-74
2022/07/22 07:32:26;;;;;;;15.18;3.50;;;16.60;99.90;;;;;;5061563;28;20040;-73
2022/07/22 07:34:52;;;;;;;10.75;3.28;;;16.60;99.90;;;;;;5070116;28;20032;-70
2022/07/22 07:37:17;;;;;;;12.38;3.58;;;16.60;99.90;;;;;;5064190;28;20072;-72
2022/07/22 07:39:43;;;;;;;10.65;3.38;;;16.60;99.90;;;;;;5053649;28;20043;-69
2022/07/22 07:42:08;;;;;;;12.68;3.60;;;16.60;99.90;;;;;;5067568;28;20768;-71
2022/07/22 07:44:34;;;;;;;9.07;3.13;;;16.70;99.90;;;;;;5067936;28;20491;-71
2022/07/22 07:47:00;;;;;;;13.10;3.00;;;16.70;99.90;;;;;;5061574;28;20185;-72
2022/07/22 07:49:25;;;;;;;11.57;3.58;;;16.70;99.90;;;;;;5053890;28;20115;-69
2022/07/22 07:51:51;;;;;;;11.07;3.28;;;16.80;99.90;;;;;;5062515;28;20043;-70
2022/07/22 07:54:17;;;;;;;10.15;2.95;;;16.80;99.90;;;;;;5057123;28;20134;-68
2022/07/22 07:56:43;;;;;;;10.68;2.97;;;16.80;99.90;;;;;;5060468;28;20098;-70
2022/07/22 07:59:09;;;;;;;10.07;3.30;;;16.90;99.90;;;;;;5059237;28;20517;-69
2022/07/22 08:01:34;;;;;;;8.30;2.95;;;16.80;99.90;;;;;;5049460;28;20049;-70
2022/07/22 08:04:00;;;;;;;8.77;3.22;;;16.80;99.90;;;;;;5062454;28;20395;-71
2022/07/22 08:06:25;;;;;;;11.73;3.33;;;16.90;99.90;;;;;;5059915;28;20039;-70
2022/07/22 08:08:51;;;;;;;15.82;3.42;;;16.90;99.90;;;;;;5055377;28;20029;-72
2022/07/22 08:11:17;;;;;;;15.00;4.63;;;17.00;99.90;;;;;;5057560;28;20577;-73
2022/07/22 08:13:42;;;;;;;11.40;2.92;;;17.10;99.90;;;;;;5061712;28;20041;-73
2022/07/22 08:16:08;;;;;;;9.45;3.55;;;17.20;99.90;;;;;;5055321;28;20059;-71
2022/07/22 08:18:33;;;;;;;13.43;3.25;;;17.30;99.90;;;;;;5058583;28;20495;-73
2022/07/22 08:20:59;;;;;;;9.18;2.75;;;17.30;99.90;;;;;;5057460;28;20048;-74
2022/07/22 08:23:25;;;;;;;13.02;3.45;;;17.40;99.90;;;;;;5053856;28;20044;-72
2022/07/22 08:25:50;;;;;;;9.77;3.22;;;17.40;99.90;;;;;;5057247;28;20037;-73
2022/07/22 08:28:16;;;;;;;7.25;2.70;;;17.50;99.90;;;;;;5053651;28;20049;-74
2022/07/22 08:30:43;;;;;;;11.68;3.05;;;17.50;99.90;;;;;;5062895;28;20040;-74
2022/07/22 08:33:10;;;;;;;9.30;2.95;;;17.50;99.90;;;;;;5059014;28;20060;-75
2022/07/22 08:35:35;;;;;;;9.68;2.88;;;17.50;99.90;;;;;;5056756;28;20041;-72
2022/07/22 08:38:01;;;;;;;14.07;3.30;;;17.50;99.90;;;;;;5056764;28;20661;-75
2022/07/22 08:40:27;;;;;;;14.35;3.30;;;17.50;99.90;;;;;;5057314;28;20047;-73
2022/07/22 08:42:53;;;;;;;10.13;3.05;;;17.50;99.90;;;;;;5053237;28;20037;-74
2022/07/22 08:45:19;;;;;;;15.32;3.20;;;17.40;99.90;;;;;;5056050;28;20102;-72
2022/07/22 08:47:47;;;;;;;11.50;3.47;;;17.30;99.90;;;;;;5058758;28;20044;-73
2022/07/22 08:50:13;;;;;;;9.38;3.05;;;17.30;99.90;;;;;;5057181;28;20047;-73
2022/07/22 08:52:39;;;;;;;9.00;3.50;;;17.20;99.90;;;;;;5062953;28;20098;-73
2022/07/22 08:55:06;;;;;;;8.95;2.97;;;17.20;99.90;;;;;;5053247;28;20479;-73
2022/07/22 08:57:32;;;;;;;7.20;3.10;;;17.20;99.90;;;;;;5070985;28;20546;-75
2022/07/22 08:59:59;;;;;;;12.13;3.60;;;17.20;99.90;;;;;;5056692;28;20124;-76
2022/07/22 09:02:26;;;;;;;8.70;2.75;;;17.10;99.90;;;;;;5060028;28;20036;-71
2022/07/22 09:04:54;;;;;;;11.02;3.45;;;17.10;99.90;;;;;;5063866;28;20036;-75
2022/07/22 09:07:27;;;;;;;9.93;3.08;;;17.10;99.90;;;;;;5072184;28;20040;-73
2022/07/22 09:09:54;;;;;;;12.65;2.75;;;17.10;99.90;;;;;;5061970;28;20068;-74
2022/07/22 09:12:20;;;;;;;13.27;3.08;;;17.00;99.90;;;;;;5057089;28;20052;-74
2022/07/22 09:14:48;;;;;;;8.15;2.92;;;17.00;99.90;;;;;;5052107;28;20040;-74
2022/07/22 09:17:26;;;;;;;8.75;2.90;;;17.00;99.90;;;;;;5058907;28;20422;-74
2022/07/22 09:19:52;;;;;;;8.10;3.28;;;17.00;99.90;;;;;;5073478;28;20486;-75
2022/07/22 09:22:42;;;;;;;9.15;2.92;;;17.10;99.90;;;;;;5056149;28;20028;-74
2022/07/22 09:25:26;;;;;;;8.55;2.90;;;17.10;99.90;;;;;;5059013;28;20404;-74
2022/07/22 09:27:53;;;;;;;10.93;3.13;;;17.20;99.90;;;;;;5079631;28;20049;-74
2022/07/22 09:30:25;;;;;;;12.23;3.08;;;17.20;99.90;;;;;;5066721;28;20047;-74
2022/07/22 09:32:52;;;;;;;11.77;3.75;;;17.20;99.90;;;;;;5064464;28;20040;-74
2022/07/22 09:35:19;;;;;;;6.57;3.00;;;17.30;99.90;;;;;;5066911;28;20110;-72
2022/07/22 09:37:56;;;;;;;8.50;2.80;;;17.30;99.90;;;;;;5062732;28;20036;-73
2022/07/22 09:40:30;;;;;;;12.75;3.20;;;17.40;99.90;;;;;;5090712;28;20039;-74
2022/07/22 09:43:01;;;;;;;14.02;3.00;;;17.40;99.90;;;;;;5074158;28;20036;-74
2022/07/22 09:45:29;;;;;;;9.18;3.20;;;17.50;99.90;;;;;;5068570;28;20083;-75
2022/07/22 09:47:56;;;;;;;12.18;3.05;;;17.60;99.90;;;;;;5064659;28;20033;-76
2022/07/22 09:50:23;;;;;;;9.02;3.33;;;17.80;99.90;;;;;;5061970;28;20039;-76
2022/07/22 09:52:51;;;;;;;18.70;3.90;;;17.90;99.90;;;;;;5068638;28;20049;-75
2022/07/22 09:55:18;;;;;;;9.73;3.10;;;18.10;99.90;;;;;;5063038;28;20040;-76
2022/07/22 09:57:44;;;;;;;7.68;2.78;;;18.30;99.90;;;;;;5055489;28;20368;-75
2022/07/22 10:00:12;;;;;;;10.18;2.65;;;18.40;99.90;;;;;;5052195;28;20094;-75
2022/07/22 10:02:44;;;;;;;5.72;2.70;;;18.50;99.90;;;;;;5056538;28;20063;-76
2022/07/22 10:05:12;;;;;;;12.88;2.90;;;18.60;99.90;;;;;;5054810;28;20040;-76
2022/07/22 10:07:38;;;;;;;8.82;2.78;;;18.60;99.90;;;;;;5053869;28;20040;-75
2022/07/22 10:10:05;;;;;;;9.90;2.83;;;18.60;99.90;;;;;;5054969;28;20439;-76
2022/07/22 10:12:31;;;;;;;8.43;2.50;;;18.60;99.90;;;;;;5056798;28;20040;-76
2022/07/22 10:14:57;;;;;;;10.07;2.65;;;18.60;99.90;;;;;;5061509;28;20040;-74
2022/07/22 10:17:23;;;;;;;9.85;2.47;;;18.40;99.90;;;;;;5062349;28;20051;-76
2022/07/22 10:19:49;;;;;;;8.80;2.80;;;18.40;99.90;;;;;;5062697;28;20067;-74
2022/07/22 10:22:39;;;;;;;10.63;2.55;;;18.30;99.90;;;;;;5067301;28;20036;-74
2022/07/22 10:25:26;;;;;;;9.45;3.20;;;18.20;99.90;;;;;;5069708;28;20146;-74
2022/07/22 10:27:58;;;;;;;6.97;2.72;;;18.10;99.90;;;;;;5066497;28;20041;-74
2022/07/22 10:30:27;;;;;;;7.63;2.40;;;18.10;99.90;;;;;;5067446;28;20050;-73
2022/07/22 10:33:08;;;;;;;7.43;2.22;;;18.00;99.90;;;;;;5063734;28;20032;-71
2022/07/22 10:35:50;;;;;;;7.35;2.80;;;18.00;99.90;;;;;;5062933;28;20051;-76
2022/07/22 10:38:35;;;;;;;5.03;2.35;;;18.10;99.90;;;;;;5052817;28;20088;-72
2022/07/22 10:41:09;;;;;;;10.05;2.45;;;18.00;99.90;;;;;;5060623;28;20068;-74
2022/07/22 10:43:41;;;;;;;7.47;2.10;;;17.90;99.90;;;;;;5061363;28;20067;-76
2022/07/22 10:46:07;;;;;;;6.55;2.17;;;17.80;99.90;;;;;;5067560;28;20106;-72
2022/07/22 10:48:33;;;;;;;8.85;2.25;;;17.70;99.90;;;;;;5067432;28;20036;-75
2022/07/22 10:51:08;;;;;;;9.65;2.53;;;17.70;99.90;;;;;;5063784;28;20041;-73
2022/07/22 10:53:52;;;;;;;6.97;2.70;;;17.70;99.90;;;;;;5061711;28;20340;-76
2022/07/22 10:56:35;;;;;;;9.77;2.70;;;17.80;99.90;;;;;;5062618;28;20071;-74
2022/07/22 10:59:15;;;;;;;8.73;2.88;;;17.80;99.90;;;;;;5057084;28;20539;-75
2022/07/22 11:01:48;;;;;;;11.90;2.70;;;17.80;99.90;;;;;;5061285;28;20054;-73
2022/07/22 11:04:25;;;;;;;7.80;2.90;;;17.90;99.90;;;;;;5071317;28;20056;-75
2022/07/22 11:06:52;;;;;;;10.68;3.58;;;17.90;99.90;;;;;;5069115;28;20372;-74
2022/07/22 11:09:23;;;;;;;7.55;2.55;;;18.00;99.90;;;;;;5062937;28;20036;-75
2022/07/22 11:11:52;;;;;;;11.02;2.72;;;18.00;99.90;;;;;;5064201;28;20041;-75
2022/07/22 11:14:32;;;;;;;7.25;2.55;;;17.90;99.90;;;;;;5056882;28;20045;-74
2022/07/22 11:17:10;;;;;;;5.10;2.40;;;18.00;99.90;;;;;;5060395;28;20048;-75
2022/07/22 11:19:39;;;;;;;8.50;2.47;;;18.00;99.90;;;;;;5064306;28;20050;-74
2022/07/22 11:22:07;;;;;;;9.13;2.60;;;18.10;99.90;;;;;;5061255;28;20040;-75
2022/07/22 11:24:34;;;;;;;7.55;2.45;;;18.00;99.90;;;;;;5066570;28;20041;-75
2022/07/22 11:27:00;;;;;;;7.13;3.28;;;18.00;99.90;;;;;;5061325;28;20135;-76
2022/07/22 11:29:35;;;;;;;9.23;2.80;;;18.00;99.90;;;;;;5059260;28;20383;-74
2022/07/22 11:32:08;;;;;;;13.25;2.78;;;17.90;99.90;;;;;;5063283;28;20505;-74
2022/07/22 11:34:37;;;;;;;7.10;2.80;;;17.80;99.90;;;;;;5062270;28;20063;-73
2022/07/22 11:37:03;;;;;;;6.25;2.63;;;17.70;99.90;;;;;;5064141;28;20202;-74
2022/07/22 11:39:29;;;;;;;5.20;2.50;;;17.70;99.90;;;;;;5060323;28;20137;-75
2022/07/22 11:42:00;;;;;;;9.95;3.08;;;17.80;99.90;;;;;;5056627;28;20060;-73
2022/07/22 11:44:28;;;;;;;5.70;3.00;;;17.80;99.90;;;;;;5059614;28;20388;-75
2022/07/22 11:46:58;;;;;;;7.55;2.55;;;17.80;99.90;;;;;;5054868;28;20487;-76
2022/07/22 11:49:24;;;;;;;9.07;2.85;;;17.80;99.90;;;;;;5078362;28;20051;-75
2022/07/22 11:51:51;;;;;;;8.93;2.80;;;17.80;99.90;;;;;;5064680;28;20132;-75
2022/07/22 11:54:17;;;;;;;8.25;2.72;;;17.80;99.90;;;;;;5074411;28;20072;-75
2022/07/22 11:56:43;;;;;;;9.32;3.25;;;17.90;99.90;;;;;;5059511;28;20040;-76
2022/07/22 11:59:14;;;;;;;8.98;3.00;;;17.80;99.90;;;;;;5043927;28;20147;-74
2022/07/22 12:01:40;;;;;;;9.95;3.13;;;17.80;99.90;;;;;;5057890;28;20070;-74
2022/07/22 12:04:09;;;;;;;10.77;3.28;;;17.70;99.90;;;;;;5051715;28;20428;-75
2022/07/22 12:06:40;;;;;;;8.63;3.30;;;17.70;99.90;;;;;;5057278;28;20037;-75
2022/07/22 12:09:19;;;;;;;12.07;3.28;;;17.70;99.90;;;;;;5058742;28;20037;-76
2022/07/22 12:11:48;;;;;;;9.40;3.47;;;17.70;99.90;;;;;;5062391;28;20491;-77
2022/07/22 12:14:16;;;;;;;7.95;3.25;;;17.80;99.90;;;;;;5066214;28;20036;-74
2022/07/22 12:16:53;;;;;;;10.25;3.30;;;17.80;99.90;;;;;;5058005;28;20126;-73
2022/07/22 12:19:18;;;;;;;7.32;3.25;;;17.80;99.90;;;;;;5073263;28;20052;-75
2022/07/22 12:21:53;;;;;;;5.78;3.00;;;17.80;99.90;;;;;;5063413;28;20479;-75
2022/07/22 12:24:34;;;;;;;8.45;2.83;;;17.90;99.90;;;;;;5073308;28;20423;-74
2022/07/22 12:27:03;;;;;;;13.77;3.00;;;17.90;99.90;;;;;;5065892;28;20044;-75
2022/07/22 12:29:41;;;;;;;10.93;3.08;;;17.90;99.90;;;;;;5062769;28;20311;-71
2022/07/22 12:32:16;;;;;;;10.77;3.28;;;17.90;99.90;;;;;;5059624;28;20137;-74
2022/07/22 12:34:45;;;;;;;14.57;3.17;;;17.90;99.90;;;;;;5054355;28;20039;-72
2022/07/22 12:37:33;;;;;;;6.97;3.00;;;18.00;99.90;;;;;;5062408;28;20098;-74